• Join FlightAware (Why Join?)
  • Login
  • US Flag 
04:03AM EDT


 

Airport Tracker/Info


-or-


 

Live Flight TrackerFlight Track Log ✈ RPA3228 ✈ 30-Oct-2013 ✈ KBNA - KDCA

Flight Track Log - Related Links

Times and Time Zones

All times are in EDT time to prevent confusion due to time zone crossing. See the RPA3228 flight status page for this flight to view local times or setup timezone preferences in your user account.

Time Position Orientation Groundspeed Altitude Reporting Facility
EDT Latitude Longitude Course Direction KTS MPH feet Rate Location/Type
07:05AM 36.1333 -86.6833 68° East 155 178 1,600  Level Nashville TRACON
07:06AM 36.1500 -86.7167 302° West 174 200 3,600 2,460 Climbing Nashville TRACON
07:07AM 36.2414 -86.3269 80° East  Level Estimated
07:07AM 36.1333 -86.7833 253° West 265 305 6,100  Level Nashville TRACON
07:07AM 36.0856 -86.7639 162° South 300 345 8,000 3,060 Climbing Memphis Center
07:08AM 36.2802 -86.2096 64° Northeast  Level Estimated
07:08AM 36.0889 -86.6661 88° East 300 345 10,900  Level Memphis Center
07:09AM 36.3188 -86.0921 68° East  Level Estimated
07:09AM 36.1125 -86.5494 76° East 319 367 13,600  Level Memphis Center
07:10AM 36.3573 -85.9746 68° East  Level Estimated
07:10AM 36.1339 -86.4303 77° East 344 396 16,200  Level Memphis Center
07:11AM 36.1569 -86.3006 78° East 357 411 18,100 2,100 Climbing Memphis Center
07:12AM 36.1817 -86.1733 76° East 377 434 20,500 2,160 Climbing Memphis Center
07:13AM 36.2147 -86.0378 73° East 384 442 22,500 1,740 Climbing Memphis Center
07:14AM 36.2628 -85.9272 62° Northeast 394 453 24,000 1,500 Climbing Memphis Center
07:15AM 36.3339 -85.7700 61° Northeast 422 486 25,900 1,560 Climbing Indianapolis Center
07:16AM 36.3981 -85.6392 59° Northeast 437 503 27,500 1,560 Climbing Indianapolis Center
07:17AM 36.4614 -85.5042 60° Northeast 450 518 29,100 1,380 Climbing Indianapolis Center
07:18AM 36.5269 -85.3653 60° Northeast 460 529 30,400 1,440 Climbing Indianapolis Center
07:19AM 36.5942 -85.2222 60° Northeast 474 545 32,100 1,260 Climbing Indianapolis Center
07:20AM 36.6475 -85.0681 67° East 484 557 33,000 420 Climbing Indianapolis Center
07:21AM 36.6956 -84.9128 69° East 480 552 33,000  Level Indianapolis Center
07:22AM 36.7428 -84.7578 69° East 477 549 33,000  Level Indianapolis Center
07:23AM 36.7914 -84.6017 69° East 480 552 33,000  Level Indianapolis Center
07:24AM 36.8419 -84.4311 70° East 482 555 33,000  Level Indianapolis Center
07:25AM 36.8883 -84.2750 70° East 482 555 33,000  Level Indianapolis Center
07:27AM 36.9361 -84.1164 69° East 485 558 33,000  Level Indianapolis Center
07:28AM 36.9822 -83.9619 69° East 476 548 33,000  Level Indianapolis Center
07:29AM 37.0378 -83.7808 69° East 476 548 33,000  Level Indianapolis Center
07:30AM 37.0831 -83.6239 70° East 478 550 33,000  Level Indianapolis Center
07:31AM 37.1292 -83.4669 70° East 478 550 33,000  Level Indianapolis Center
07:32AM 37.1750 -83.3094 70° East 477 549 33,000  Level Indianapolis Center
07:33AM 37.2203 -83.1517 70° East 476 548 33,000  Level Indianapolis Center
07:34AM 37.2650 -82.9942 70° East 474 545 33,000  Level Indianapolis Center
07:35AM 37.3106 -82.8367 70° East 475 547 33,000  Level Indianapolis Center
07:36AM 37.3553 -82.6778 70° East 479 551 33,000  Level Indianapolis Center
07:37AM 37.4003 -82.5197 70° East 478 550 33,000  Level Indianapolis Center
07:38AM 37.4450 -82.3589 71° East 484 557 33,000  Level Indianapolis Center
07:39AM 37.4892 -82.2014 70° East 477 549 33,000  Level Indianapolis Center
07:40AM 37.5336 -82.0411 71° East 483 556 33,000  Level Indianapolis Center
07:41AM 37.5853 -81.8533 71° East 485 558 33,000  Level Indianapolis Center
07:42AM 37.6289 -81.6908 71° East 488 562 33,000  Level Indianapolis Center
07:43AM 37.6728 -81.5292 71° East 488 562 33,000  Level Indianapolis Center
07:44AM 37.7158 -81.3672 71° East 492 566 33,000  Level Indianapolis Center
07:45AM 37.7586 -81.2078 71° East 491 565 33,000  Level Indianapolis Center
07:46AM 37.8058 -81.0536 69° East 484 557 33,000  Level Indianapolis Center
07:47AM 37.8708 -80.8697 66° East 485 558 33,000  Level Indianapolis Center
07:48AM 37.9247 -80.7158 66° East 480 552 33,000  Level Indianapolis Center
07:49AM 37.9664 -80.6044 65° Northeast 481 554 33,000  Level Washington Center
07:50AM 38.0228 -80.4500 65° Northeast 481 554 33,000  Level Washington Center
07:51AM 38.0747 -80.2950 67° East 481 554 33,000  Level Washington Center
07:52AM 38.1331 -80.1403 64° Northeast 481 554 33,000  Level Washington Center
07:53AM 38.1819 -79.9981 66° East 487 560 33,000  Level Washington Center
07:54AM 38.2378 -79.8428 65° Northeast 482 555 33,000  Level Washington Center
07:55AM 38.2911 -79.6869 66° East 482 555 33,000  Level Washington Center
07:56AM 38.3464 -79.5311 66° East 482 555 33,000 -900 Level Washington Center
07:57AM 38.4061 -79.3567 66° East 482 555 31,300 -2,100 Descending Washington Center
07:58AM 38.4425 -79.1942 74° East 482 555 28,800 -2,220 Descending Washington Center
07:59AM 38.4722 -79.0367 76° East 476 548 27,000 -1,200 Descending Washington Center
08:00AM 38.4994 -78.8814 77° East 457 526 26,500 -1,380 Descending Washington Center
08:01AM 38.5178 -78.7361 81° East 457 526 24,300 -2,100 Descending Washington Center
08:02AM 38.5425 -78.5886 78° East 439 505 22,400 -1,500 Descending Washington Center
08:03AM 38.5647 -78.4461 79° East 418 481 21,400 -1,260 Descending Washington Center
08:04AM 38.5869 -78.3008 79° East 412 474 19,900 -1,740 Descending Washington Center
08:05AM 38.6233 -78.1639 71° East 407 468 18,000 -1,860 Descending Washington Center
08:06AM 38.6633 -78.0403 67° East 394 453 16,300 -1,620 Descending Washington Center
08:07AM 38.7036 -77.9033 69° East 373 429 14,900 -1,680 Descending Washington Center
08:08AM 38.7386 -77.8192 62° Northeast 341 392 12,900 -1,680 Descending Washington Center
08:09AM 38.7942 -77.7383 49° Northeast 313 360 11,600 -1,320 Descending Washington Center
08:10AM 38.8417 -77.6439 57° Northeast 313 360 10,300 -1,380 Descending Washington Center
08:11AM 38.8833 -77.5333 64° Northeast 305 351 9,000 -1,200 Descending Potomac TRACON
08:12AM 38.9000 -77.4333 78° East 278 320 8,000 -1,200 Descending Potomac TRACON
08:13AM 38.8667 -77.3500 117° Southeast 255 293 6,700 -1,080 Descending Potomac TRACON
08:14AM 38.8333 -77.2833 123° Southeast 250 288 6,000 -600 Descending Potomac TRACON
08:15AM 38.8000 -77.2000 117° Southeast 240 276 5,500 -1,020 Descending Potomac TRACON
08:16AM 38.7667 -77.1333 123° Southeast 218 251 3,900 -1,260 Descending Potomac TRACON
08:17AM 38.7333 -77.1167 159° South 191 220 3,000 -780 Descending Potomac TRACON
08:18AM 38.7000 -77.0833 142° Southeast 208 239 2,500 -600 Descending Potomac TRACON
08:19AM 38.7167 -77.0333 67° East 205 236 2,000 -660 Descending Potomac TRACON
08:19AM 38.7667 -77.0333 360° North 191 220 1,400 -780 Descending Potomac TRACON
08:20AM 38.8167 -77.0333 360° North 133 153 600 -840 Descending Potomac TRACON